Casper, WY (82601)

8:46 AM MST on February 10, 2016 (GMT -0700)
Casper Mountain Foothills | | Change Station
CLOSE
Current Station
Personal Weather Station
Location: Casper, WY
Elevation: 5334 ft
Nearby Weather Stations
Active Advisory: Special Statement

Elev 5334 ft 42.83 °N, 106.31 °W | Updated 1 minute ago

Clear
Clear
51.0 °F
Feels Like 51.0 °F
N
7.0
Wind Variable Wind from SW
Gusts 7.0 mph

Today
High -- | Low -- °F
--% Chance of Precip.
Yesterday
High -- | Low -- °F
Precip. -- in
Pressure 30.15 in
Visibility 9.0 miles
Clouds Clear
Dew Point 10 °F
Humidity 19%
Rainfall 0.00 in
Snow Depth Not available.
7:09 AM 5:29 PM
Waxing Crescent, 6% visible
METAR KCPR 101453Z 22024G33KT 9SM -SN CLR 03/M08 A3012 RMK AO2 PK WND 21036/1411 SLP208 P0000 60000 T00331078 57004
Pressure 30.15 in
Visibility 9.0 miles
Clouds Clear
Dew Point 10 °F
Humidity 19%
Rainfall 0.00 in
Snow Depth Not available.
7:09 AM 5:29 PM
Waxing Crescent, 6% visible
METAR KCPR 101453Z 22024G33KT 9SM -SN CLR 03/M08 A3012 RMK AO2 PK WND 21036/1411 SLP208 P0000 60000 T00331078 57004

10-Day Weather Forecast

Almanac

Astronomy

Feb. 10, 2016 Rise Set
Actual Time
Civil Twilight
Nautical Twilight
Astronomical Twilight
Moon
Length of Visible Light
Length of Day
Tomorrow will be .
, % of the Moon is Illuminated

Today's Extremes

State Highs State Lows

Community

WunderPhotos

Upload Photos

1,891,863 photos uploaded!

WunderBlog® & News

Nearby

Air Quality

  Air Quality AQ Index Pollutant
Not available.

Snow Depth

Station Depth Elevation

Earthquake Activity

City Distance Mag. Time & Date
Minimum magnitude displayed is 2.5.

Coastal Water Temperatures

Place Temperature

Stations

Nearby Weather Stations

Station Location Temp. Windchill Dew Point Humidity Wind Precip. Elev Updated Type
                   

Watches & Warnings

Special Statement
Issued: 5:58 AM MST Feb. 10, 2016 – National Weather Service

Southwest winds between 25 and 35 mph... with occasional gusts to
45 mph are expected through early this afternoon in the Casper
area. Lightweight and high profile vehicles should be especially
cautious if traveling today... for sudden and strong wind
gusts... including along Interstate 25 as well as Wyoming Boulevard.



158 am MST Wed Feb 10 2016

Southwest winds between 25 and 35 mph... with occasional gusts to
45 mph are expected through early this afternoon in the Casper
area. Lightweight and high profile vehicles should be especially
cautious if traveling today... for sudden and strong wind
gusts... including along Interstate 25 as well as Wyoming boulivard.